Blythe, CA

3:58 PM PST on December 03, 2016 (GMT -0800)
farmerman92225 | | Change Station
Active Advisory: Wind Advisory

Elev 259 ft 33.62 °N, 114.66 °W | Updated 52 seconds ago

Partly Cloudy
Partly Cloudy
66.2 °F
Feels Like 66.2 °F
N
10.0
Wind Variable Wind from NNW
Gusts 13.0 mph

Today
High -- | Low -- °F
--% Chance of Precip.
Yesterday
High -- | Low -- °F
Precip. -- in
Pressure 30.01 in
Visibility 10.0 miles
Clouds Few 200 ft
Dew Point 10 °F
Humidity 11%
Rainfall 0.00 in
Snow Depth Not available.
6:27 AM 4:30 PM
Waxing Crescent, 18% visible
METAR KBLH 032352Z AUTO 33014KT 10SM FEW002 19/M15 A3002 RMK AO2 PK WND 34026/2314 SLP161 T01891150 10200 20156 55004
Pressure 30.01 in
Visibility 10.0 miles
Clouds Few 200 ft
Dew Point 10 °F
Humidity 11%
Rainfall 0.00 in
Snow Depth Not available.
6:27 AM 4:30 PM
Waxing Crescent, 18% visible
METAR KBLH 032352Z AUTO 33014KT 10SM FEW002 19/M15 A3002 RMK AO2 PK WND 34026/2314 SLP161 T01891150 10200 20156 55004

10-Day Weather Forecast

Almanac

Astronomy

Dec. 03, 2016 Rise Set
Actual Time
Civil Twilight
Nautical Twilight
Astronomical Twilight
Moon
Length of Visible Light
Length of Day
Tomorrow will be .
, % of the Moon is Illuminated

Today's Extremes

State Highs State Lows

Community

WunderPhotos

Upload Photos

1,955,536 photos uploaded!

WunderBlog® & News

Nearby

Air Quality

  Air Quality AQ Index Pollutant
Not available.

Snow Depth

Station Depth Elevation

Earthquake Activity

City Distance Mag. Time & Date
Minimum magnitude displayed is 2.5.

Coastal Water Temperatures

Place Temperature

Stations

Nearby Weather Stations

Station Location Temp. Windchill Dew Point Humidity Wind Precip. Elev Updated Type
                   

Watches & Warnings

Wind Advisory
Issued: 12:09 PM PST Dec. 3, 2016 – National Weather Service

... Wind Advisory remains in effect until 9 PM MST /8 PM PST/ this
evening...

* affected area... the lower Colorado River valley including the Yuma
and Martinez Lake area... eastern Riverside County... Joshua Tree
National Park... and Imperial County. This includes Interstate 8
from Yuma to the coastal mountains and Interstate 10 from Blythe
toward the Coachella Valley.

* Timing... through 8 PM PST /9 PM MST/ tonight.

* Winds... north winds around 20 to 30 mph with gusts up to 45 mph.

* Impacts... strong Crosswinds on east/west oriented roads and locally
reduced visibilities due to areas of blowing dust creating
hazardous driving conditions. High profile vehicles most
susceptible.

Precautionary/preparedness actions...

A Wind Advisory means that sustained wind speeds of between
30 and 40 mph are expected... or wind gusts of between 40 and
58 mph. Winds this strong can make driving difficult... especially
for high profile vehicles. In addition... strong winds over desert
areas could result in briefly lowered visibilities to well under
a mile at times in blowing dust or blowing sand. Use extra
caution.



Iniguez